82°F Temp
64°F Dewpoint
55% Humidity
Temperature
7 MPH
11 KM/H
6 KTS
70°
East North
East

Wind Speed
Mostly Scattered
Clouds
Pressure 1020.32 (hPa) - 30.13 (in)
Visibility 10.0 (mi) - 16.1 (km)

Current Conditions
KORD
Location 30(mi)
Metar :KORD 121651Z 07006KT 10SM SCT038 28/18 A3013 RMK AO2 SLP199 T02780183
Fri 12th July 11:51 am

Airport
  Metar Aviation API Data Provided by https://www.checkwx.com/ PHP scripts by weather34.com ©2024